Time;durP1;ratioP1;P1;durP2;ratioP2;P2;SDS_P1;SDS_P2;PMS_P1;PMS_P2;Temp;Humidity;BMP_temperature;BMP_pressure;BME280_temperature;BME280_humidity;BME280_pressure;Samples;Min_cycle;Max_cycle;Signal;HPM_P1;HPM_P2
2022/06/19 00:00:20;;;;;;;10.53;6.50;;;;;;;11.99;84.91;95042.16;1725099;83;21052;-49
2022/06/19 00:02:50;;;;;;;9.80;6.10;;;;;;;11.98;85.19;95056.38;1717177;83;21010;-49
2022/06/19 00:05:18;;;;;;;8.80;5.87;;;;;;;11.96;85.33;95049.17;1717120;83;21270;-50
2022/06/19 00:07:46;;;;;;;11.22;6.83;;;;;;;11.93;85.46;95052.20;1688576;83;21050;-49
2022/06/19 00:10:13;;;;;;;11.38;8.38;;;;;;;11.90;85.48;95048.22;1725171;83;20971;-50
2022/06/19 00:12:41;;;;;;;11.28;7.50;;;;;;;11.86;85.90;95044.20;1717118;83;20981;-50
2022/06/19 00:15:10;;;;;;;12.55;7.00;;;;;;;11.82;86.06;95046.31;1717162;83;21019;-50
2022/06/19 00:17:38;;;;;;;11.78;8.08;;;;;;;11.81;86.28;95046.16;1688664;85;21132;-49
2022/06/19 00:20:08;;;;;;;13.35;7.40;;;;;;;11.78;85.94;95046.27;1725048;83;21149;-50
2022/06/19 00:22:36;;;;;;;9.08;7.22;;;;;;;11.76;85.71;95038.47;1717486;83;21015;-49
2022/06/19 00:25:08;;;;;;;11.45;7.22;;;;;;;11.71;85.47;95045.91;1717268;83;21584;-49
2022/06/19 00:27:39;;;;;;;14.63;7.28;;;;;;;11.67;85.53;95043.89;1688994;85;21042;-51
2022/06/19 00:30:11;;;;;;;12.70;7.22;;;;;;;11.67;85.52;95045.86;1725260;83;26467;-49
2022/06/19 00:32:39;;;;;;;12.45;7.62;;;;;;;11.66;85.48;95042.36;1717169;83;21490;-48
2022/06/19 00:35:08;;;;;;;11.95;7.20;;;;;;;11.67;85.60;95053.54;1688446;85;21026;-50
2022/06/19 00:37:36;;;;;;;13.35;7.95;;;;;;;11.70;85.97;95055.40;1725137;83;21078;-50
2022/06/19 00:40:06;;;;;;;11.93;7.72;;;;;;;11.74;86.24;95058.80;1717118;83;20954;-50
2022/06/19 00:42:34;;;;;;;14.83;7.00;;;;;;;11.77;86.33;95055.17;1717121;83;21933;-49
2022/06/19 00:45:03;;;;;;;13.60;7.70;;;;;;;11.80;86.55;95054.27;1717111;83;20959;-50
2022/06/19 00:47:35;;;;;;;15.25;7.35;;;;;;;11.82;86.49;95048.29;1717170;83;20975;-50
2022/06/19 00:50:24;;;;;;;12.37;6.55;;;;;;;11.82;86.58;95051.83;1688525;85;21450;-50
2022/06/19 00:52:52;;;;;;;12.53;7.37;;;;;;;11.84;86.45;95046.64;1725071;83;20970;-51
2022/06/19 00:55:24;;;;;;;11.10;6.87;;;;;;;11.85;86.31;95048.17;1717626;83;21225;-49
2022/06/19 00:58:05;;;;;;;11.75;7.35;;;;;;;11.83;86.38;95049.23;1717448;83;20963;-50
2022/06/19 01:00:33;;;;;;;15.53;7.67;;;;;;;11.81;86.59;95050.30;1717494;83;21421;-50
2022/06/19 01:03:15;;;;;;;14.45;7.72;;;;;;;11.77;86.40;95051.03;1688586;85;21034;-49
2022/06/19 01:05:43;;;;;;;14.47;8.00;;;;;;;11.75;86.78;95049.30;1725116;83;21002;-49
2022/06/19 01:08:14;;;;;;;15.45;7.53;;;;;;;11.78;86.90;95048.44;1717092;83;21330;-49
2022/06/19 01:10:45;;;;;;;11.50;7.65;;;;;;;11.82;87.01;95049.67;1688460;85;21408;-49
2022/06/19 01:13:14;;;;;;;11.78;6.40;;;;;;;11.86;87.24;95044.20;1725116;83;20959;-54
2022/06/19 01:15:43;;;;;;;10.20;6.80;;;;;;;11.93;86.84;95041.80;1717066;83;20967;-48
2022/06/19 01:18:11;;;;;;;9.08;6.03;;;;;;;11.95;86.46;95044.28;1688328;85;20975;-50
2022/06/19 01:20:40;;;;;;;8.80;5.47;;;;;;;11.99;86.20;95044.92;1725417;83;21850;-49
2022/06/19 01:23:28;;;;;;;11.53;6.25;;;;;;;12.00;85.88;95042.33;1717107;83;21027;-49
2022/06/19 01:25:56;;;;;;;10.38;6.70;;;;;;;12.00;85.58;95043.70;1717062;83;21018;-50
2022/06/19 01:28:45;;;;;;;9.73;6.20;;;;;;;11.96;85.27;95039.52;1688316;85;21470;-50
2022/06/19 01:31:19;;;;;;;9.48;6.28;;;;;;;11.93;85.21;95043.94;1725081;83;20943;-49
2022/06/19 01:33:56;;;;;;;18.07;6.22;;;;;;;11.90;85.09;95048.22;1717184;83;21240;-49
2022/06/19 01:36:25;;;;;;;13.28;6.70;;;;;;;11.83;85.14;95039.59;1717264;83;20990;-49
2022/06/19 01:38:54;;;;;;;12.07;7.45;;;;;;;11.80;85.45;95044.63;1694883;83;21022;-49
2022/06/19 01:41:29;;;;;;;10.50;7.03;;;;;;;11.76;85.85;95047.33;1688551;85;21006;-50
2022/06/19 01:43:57;;;;;;;11.75;7.20;;;;;;;11.74;86.12;95044.26;1725053;83;21577;-50
2022/06/19 01:46:27;;;;;;;10.10;6.42;;;;;;;11.74;86.18;95042.88;1717057;83;21218;-49
2022/06/19 01:48:54;;;;;;;9.33;6.12;;;;;;;11.73;85.96;95045.48;1688366;85;21452;-49
2022/06/19 01:51:23;;;;;;;7.97;6.35;;;;;;;11.67;85.62;95045.27;1694496;83;21017;-49
2022/06/19 01:54:03;;;;;;;16.07;7.80;;;;;;;11.66;85.93;95053.38;1717094;83;21442;-49
2022/06/19 01:56:32;;;;;;;14.83;7.75;;;;;;;11.66;86.17;95045.70;1717344;83;20939;-49
2022/06/19 01:59:04;;;;;;;18.65;7.78;;;;;;;11.61;86.17;95040.77;1717139;83;21905;-49
2022/06/19 02:01:34;;;;;;;14.63;7.50;;;;;;;11.60;86.33;95044.74;1717192;83;21511;-50
2022/06/19 02:04:02;;;;;;;25.02;7.45;;;;;;;11.59;86.44;95045.37;1717054;83;21026;-50
2022/06/19 02:06:34;;;;;;;15.45;7.12;;;;;;;11.63;86.77;95040.50;1717517;83;21055;-49
2022/06/19 02:09:01;;;;;;;9.20;6.00;;;;;;;11.66;86.91;95040.19;1716968;83;20955;-48
2022/06/19 02:11:34;;;;;;;9.00;5.87;;;;;;;11.67;86.92;95032.08;1688320;85;21515;-49
2022/06/19 02:14:05;;;;;;;10.63;5.40;;;;;;;11.64;86.96;95037.90;1724957;83;21454;-49
2022/06/19 02:16:36;;;;;;;7.87;5.80;;;;;;;11.67;87.10;95041.73;1717541;83;20991;-49
2022/06/19 02:19:04;;;;;;;7.80;5.30;;;;;;;11.74;87.24;95041.50;1717509;83;20978;-49
2022/06/19 02:21:39;;;;;;;7.62;5.30;;;;;;;11.82;87.14;95047.70;1688661;85;21015;-49
2022/06/19 02:24:08;;;;;;;9.10;5.53;;;;;;;11.90;86.98;95048.97;1724587;83;21347;-49
2022/06/19 02:26:37;;;;;;;8.90;6.70;;;;;;;11.95;86.56;95043.50;1717096;83;21679;-49
2022/06/19 02:29:09;;;;;;;8.08;5.75;;;;;;;11.98;86.56;95045.36;1688724;85;21512;-48
2022/06/19 02:31:39;;;;;;;8.75;6.15;;;;;;;12.00;86.10;95047.05;1725153;83;21085;-50
2022/06/19 02:34:23;;;;;;;8.95;5.50;;;;;;;12.01;86.15;95049.97;1702360;83;21118;-49
2022/06/19 02:36:58;;;;;;;8.65;6.25;;;;;;;12.02;86.01;95049.53;1658475;86;21291;-49
2022/06/19 02:39:55;;;;;;;9.90;5.90;;;;;;;12.06;85.87;95050.80;1697794;84;21038;-49
2022/06/19 02:42:31;;;;;;;10.43;5.92;;;;;;;12.09;85.69;95044.38;1698374;84;20968;-49
2022/06/19 02:45:01;;;;;;;7.75;5.25;;;;;;;12.07;85.37;95046.19;1698275;84;21022;-50
2022/06/19 02:47:33;;;;;;;12.20;5.45;;;;;;;12.07;85.50;95047.57;1658870;86;21038;-49
2022/06/19 02:50:04;;;;;;;6.50;4.75;;;;;;;12.10;85.57;95049.42;1698461;84;21092;-48
2022/06/19 02:52:32;;;;;;;5.30;4.70;;;;;;;12.15;85.57;95051.62;1698523;84;21015;-49
2022/06/19 02:55:00;;;;;;;7.40;5.08;;;;;;;12.17;85.26;95053.92;1698251;84;21055;-49
2022/06/19 02:57:28;;;;;;;6.70;4.75;;;;;;;12.12;84.99;95053.87;1658515;86;21533;-50
2022/06/19 02:59:56;;;;;;;5.35;4.37;;;;;;;12.07;85.04;95048.95;1678506;84;21495;-49
2022/06/19 03:02:28;;;;;;;5.22;4.72;;;;;;;12.10;85.16;95052.81;1659006;86;21784;-50
2022/06/19 03:04:58;;;;;;;10.05;5.75;;;;;;;12.14;85.12;95054.23;1698206;84;20984;-49
2022/06/19 03:07:30;;;;;;;5.65;5.00;;;;;;;12.15;85.26;95053.01;1698365;84;21000;-50
2022/06/19 03:09:55;;;;;;;8.15;5.53;;;;;;;12.20;85.40;95050.26;1697721;84;21004;-50
2022/06/19 03:12:25;;;;;;;6.72;5.40;;;;;;;12.25;85.14;95056.59;1698199;84;20975;-50
2022/06/19 03:14:52;;;;;;;8.23;5.90;;;;;;;12.28;84.99;95050.92;1658597;86;21812;-50
2022/06/19 03:17:21;;;;;;;10.23;5.90;;;;;;;12.32;84.83;95053.56;1698538;84;21174;-50
2022/06/19 03:19:49;;;;;;;14.85;6.33;;;;;;;12.29;84.65;95060.73;1698270;84;20999;-49
2022/06/19 03:22:19;;;;;;;11.20;6.35;;;;;;;12.21;84.85;95066.37;1698323;84;21500;-48
2022/06/19 03:24:47;;;;;;;10.58;7.15;;;;;;;12.17;85.05;95054.70;1658577;86;21074;-50
2022/06/19 03:27:15;;;;;;;9.75;5.90;;;;;;;12.19;85.14;95048.13;1678522;84;21773;-49
2022/06/19 03:29:43;;;;;;;7.42;5.80;;;;;;;12.28;85.30;95054.31;1678893;84;20956;-50
2022/06/19 03:32:13;;;;;;;11.30;6.12;;;;;;;12.38;85.00;95051.16;1698346;84;21490;-49
2022/06/19 03:34:42;;;;;;;10.65;5.60;;;;;;;12.49;84.83;95047.37;1702209;84;21375;-50
2022/06/19 03:37:10;;;;;;;9.03;5.17;;;;;;;12.59;84.66;95043.45;1667129;85;21011;-49
2022/06/19 03:39:38;;;;;;;8.73;5.40;;;;;;;12.67;84.38;95037.80;1725123;83;21279;-49
2022/06/19 03:42:06;;;;;;;4.95;4.50;;;;;;;12.75;84.26;95040.46;1717188;83;20986;-49
2022/06/19 03:44:34;;;;;;;8.20;4.90;;;;;;;12.85;84.02;95042.80;1688428;85;20979;-48
2022/06/19 03:47:03;;;;;;;9.30;5.28;;;;;;;12.95;83.85;95040.88;1694311;83;20975;-49
2022/06/19 03:49:32;;;;;;;5.92;4.70;;;;;;;13.06;83.74;95045.38;1717130;83;21030;-50
2022/06/19 03:52:01;;;;;;;6.58;4.87;;;;;;;13.11;83.21;95039.25;1694987;83;21176;-50
2022/06/19 03:54:29;;;;;;;7.28;4.58;;;;;;;13.10;83.08;95046.00;1688766;85;20998;-48
2022/06/19 03:56:57;;;;;;;7.28;5.30;;;;;;;13.10;83.11;95050.89;1694675;83;21657;-49
2022/06/19 03:59:26;;;;;;;8.15;5.65;;;;;;;13.12;83.16;95043.55;1717132;83;20986;-50
2022/06/19 04:01:54;;;;;;;7.87;5.12;;;;;;;13.16;83.18;95039.42;1717237;83;21446;-49
2022/06/19 04:04:22;;;;;;;6.33;5.42;;;;;;;13.20;83.18;95037.88;1688372;85;21152;-50
2022/06/19 04:06:51;;;;;;;8.53;6.55;;;;;;;13.24;83.16;95037.14;1725039;83;21521;-49
2022/06/19 04:09:19;;;;;;;7.50;5.67;;;;;;;13.31;83.07;95032.70;1717844;83;21078;-49
2022/06/19 04:11:47;;;;;;;9.88;5.30;;;;;;;13.42;82.72;95037.19;1717164;83;21054;-49
2022/06/19 04:14:17;;;;;;;6.62;5.30;;;;;;;13.49;82.55;95035.49;1688507;85;21109;-49
2022/06/19 04:16:47;;;;;;;6.53;5.62;;;;;;;13.57;82.46;95036.72;1717153;83;21419;-49
2022/06/19 04:19:14;;;;;;;11.15;6.03;;;;;;;13.67;82.18;95029.98;1717073;83;20963;-49
2022/06/19 04:21:45;;;;;;;5.58;4.62;;;;;;;13.82;82.38;95030.29;1717389;83;21427;-49
2022/06/19 04:24:15;;;;;;;6.20;5.25;;;;;;;14.12;81.69;95027.20;1688563;85;21123;-49
2022/06/19 04:26:43;;;;;;;10.48;4.70;;;;;;;14.35;80.79;95029.38;1725350;83;20978;-50
2022/06/19 04:29:12;;;;;;;7.03;5.12;;;;;;;14.50;79.78;95032.41;1717227;83;21203;-49
2022/06/19 04:31:41;;;;;;;7.22;5.20;;;;;;;14.60;78.91;95031.16;1688267;85;21026;-50
2022/06/19 04:34:09;;;;;;;6.78;4.83;;;;;;;14.67;78.14;95038.50;1719937;83;21003;-49
2022/06/19 04:36:37;;;;;;;7.20;5.25;;;;;;;14.72;77.32;95026.81;1716746;83;21049;-49
2022/06/19 04:39:05;;;;;;;5.62;5.12;;;;;;;14.76;76.91;95029.39;1663104;85;20980;-49
2022/06/19 04:41:36;;;;;;;7.45;4.85;;;;;;;14.80;76.42;95034.92;1693241;83;21184;-50
2022/06/19 04:44:07;;;;;;;9.10;4.60;;;;;;;14.86;75.96;95035.84;1748089;82;20967;-48
2022/06/19 04:46:35;;;;;;;6.03;3.80;;;;;;;14.94;75.11;95034.87;1748452;82;20986;-49
2022/06/19 04:49:02;;;;;;;5.72;4.53;;;;;;;14.94;74.62;95031.49;1727435;82;20967;-50
2022/06/19 04:51:31;;;;;;;6.67;4.50;;;;;;;14.93;74.55;95031.95;1748300;82;21579;-50
2022/06/19 04:54:00;;;;;;;5.45;4.55;;;;;;;14.98;74.51;95034.11;1748229;81;22170;-50
2022/06/19 04:56:27;;;;;;;7.42;3.83;;;;;;;15.05;74.25;95030.38;1748314;81;21045;-49
2022/06/19 04:58:56;;;;;;;8.80;4.80;;;;;;;15.14;73.97;95024.78;1748147;82;21502;-50
2022/06/19 05:01:30;;;;;;;5.72;3.92;;;;;;;15.21;73.55;95026.45;1748413;82;20939;-50
2022/06/19 05:04:00;;;;;;;8.98;4.83;;;;;;;15.29;73.12;95022.89;1748300;82;21002;-49
2022/06/19 05:06:27;;;;;;;5.17;3.90;;;;;;;15.39;72.84;95017.42;1748512;82;21759;-49
2022/06/19 05:08:55;;;;;;;17.65;6.97;;;;;;;15.42;72.78;95019.88;1748049;82;21038;-50
2022/06/19 05:11:23;;;;;;;5.53;4.60;;;;;;;15.49;72.68;95018.91;1748573;82;21556;-50
2022/06/19 05:13:51;;;;;;;7.72;3.98;;;;;;;15.55;72.67;95016.27;1748163;82;20955;-49
2022/06/19 05:16:22;;;;;;;6.05;3.85;;;;;;;15.62;72.41;95006.19;1748272;81;21006;-51
2022/06/19 05:18:52;;;;;;;6.33;3.87;;;;;;;15.67;72.04;95002.76;1727769;82;21173;-50
2022/06/19 05:21:21;;;;;;;9.40;4.42;;;;;;;15.72;71.74;95006.29;1748456;82;21570;-49
2022/06/19 05:23:49;;;;;;;9.50;4.22;;;;;;;15.80;71.66;95002.68;1748113;82;21510;-50
2022/06/19 05:26:28;;;;;;;5.50;4.58;;;;;;;15.91;71.42;95009.81;1748217;81;21527;-51
2022/06/19 05:28:56;;;;;;;5.55;3.65;;;;;;;16.02;70.90;95000.33;1747508;82;20966;-49
2022/06/19 05:31:25;;;;;;;9.48;3.58;;;;;;;16.12;70.39;94996.22;1748868;82;21240;-50
2022/06/19 05:33:53;;;;;;;6.45;4.12;;;;;;;16.21;70.10;94990.59;1727307;81;20998;-49
2022/06/19 05:36:22;;;;;;;5.72;3.95;;;;;;;16.29;69.99;94994.52;1719656;83;21045;-50
2022/06/19 05:38:50;;;;;;;9.40;4.00;;;;;;;16.36;69.82;94994.94;1719665;83;21045;-50
2022/06/19 05:41:18;;;;;;;6.83;3.95;;;;;;;16.41;69.69;94990.12;1719721;83;21014;-49
2022/06/19 05:43:49;;;;;;;6.45;3.67;;;;;;;16.52;69.73;94983.98;1753173;81;22041;-50
2022/06/19 05:46:19;;;;;;;5.25;4.60;;;;;;;16.64;69.42;94985.08;1719658;83;21050;-49
2022/06/19 05:48:47;;;;;;;11.95;4.60;;;;;;;16.76;69.10;94979.08;1719531;83;21422;-49
2022/06/19 05:51:19;;;;;;;4.40;4.00;;;;;;;16.86;68.97;94977.70;1719871;83;21451;-50
2022/06/19 05:53:50;;;;;;;7.95;4.12;;;;;;;16.98;68.88;94971.08;1719737;83;21113;-49
2022/06/19 05:56:18;;;;;;;11.10;4.25;;;;;;;17.11;68.43;94967.36;1720059;83;21290;-49
2022/06/19 05:58:46;;;;;;;7.47;4.05;;;;;;;17.22;67.81;94971.67;1719506;83;20994;-50
2022/06/19 06:01:17;;;;;;;5.35;3.77;;;;;;;17.32;67.37;94959.19;1753375;81;20954;-49
2022/06/19 06:03:45;;;;;;;7.28;3.60;;;;;;;17.40;67.06;94963.11;1753169;81;20959;-49
2022/06/19 06:06:17;;;;;;;4.05;3.62;;;;;;;17.48;66.18;94963.59;1719886;83;21018;-51
2022/06/19 06:08:44;;;;;;;5.33;3.70;;;;;;;17.54;65.79;94962.28;1719704;83;21308;-50
2022/06/19 06:11:13;;;;;;;6.17;3.92;;;;;;;17.60;65.53;94961.11;1719591;83;20963;-52
2022/06/19 06:13:41;;;;;;;5.47;3.60;;;;;;;17.65;65.30;94955.48;1753117;81;20994;-50
2022/06/19 06:16:15;;;;;;;4.45;3.75;;;;;;;17.70;64.80;94949.98;1719672;83;20967;-49
2022/06/19 06:18:43;;;;;;;;;;;;;;;17.80;64.45;94952.74;1725727;81;21439;-50
2022/06/19 06:21:14;;;;;;;4.75;3.35;;;;;;;17.89;64.49;94946.27;1722377;81;21080;-51
2022/06/19 06:23:42;;;;;;;7.05;3.55;;;;;;;18.03;64.21;94946.16;1753385;81;20989;-49
2022/06/19 06:26:20;;;;;;;5.58;3.08;;;;;;;18.18;63.49;94943.30;1719801;83;21506;-49
2022/06/19 06:28:50;;;;;;;6.10;2.95;;;;;;;18.28;63.25;94944.81;1719558;83;21023;-51
2022/06/19 06:31:18;;;;;;;5.40;2.87;;;;;;;18.42;62.63;94952.94;1719951;83;21006;-49
2022/06/19 06:33:46;;;;;;;3.30;3.00;;;;;;;18.54;62.18;94945.58;1753034;81;21798;-51
2022/06/19 06:36:14;;;;;;;4.87;3.55;;;;;;;18.64;61.71;94946.91;1709594;84;20963;-49
2022/06/19 06:38:42;;;;;;;6.15;3.08;;;;;;;18.75;61.24;94945.63;1681119;85;20990;-49
2022/06/19 06:41:11;;;;;;;5.58;2.90;;;;;;;18.84;61.16;94937.06;1717259;83;21027;-54
2022/06/19 06:43:43;;;;;;;5.42;3.40;;;;;;;18.94;61.04;94934.23;1709692;83;21526;-54
2022/06/19 06:46:13;;;;;;;6.45;3.17;;;;;;;19.07;60.33;94938.77;1681127;85;21148;-50
2022/06/19 06:48:40;;;;;;;4.55;3.60;;;;;;;19.16;60.54;94934.40;1717242;83;21578;-49
2022/06/19 06:51:14;;;;;;;6.12;3.25;;;;;;;19.33;60.68;94933.87;1709611;84;20999;-50
2022/06/19 06:53:43;;;;;;;7.28;3.92;;;;;;;19.49;60.02;94933.20;1709657;84;21460;-51
2022/06/19 06:56:11;;;;;;;3.98;3.37;;;;;;;19.64;59.02;94928.20;1710265;84;21522;-50
2022/06/19 06:58:39;;;;;;;5.20;3.22;;;;;;;19.75;58.44;94924.03;1681066;85;21174;-50
2022/06/19 07:01:13;;;;;;;6.50;3.22;;;;;;;19.85;58.37;94923.18;1717295;83;21507;-49
2022/06/19 07:03:41;;;;;;;10.35;3.77;;;;;;;19.97;58.08;94924.13;1709620;84;21011;-51
2022/06/19 07:06:10;;;;;;;10.88;3.67;;;;;;;20.11;57.71;94924.56;1681413;85;20991;-50
2022/06/19 07:08:39;;;;;;;6.28;2.95;;;;;;;20.26;56.57;94911.13;1717253;83;21018;-50
2022/06/19 07:11:11;;;;;;;6.03;3.80;;;;;;;20.38;55.73;94904.30;1709725;84;21162;-49
2022/06/19 07:13:38;;;;;;;4.05;3.00;;;;;;;20.47;55.51;94897.83;1709739;84;21024;-53
2022/06/19 07:16:06;;;;;;;4.50;3.33;;;;;;;20.58;55.64;94890.08;1681158;85;21011;-51
2022/06/19 07:18:35;;;;;;;4.70;3.30;;;;;;;20.71;54.44;94902.92;1717351;83;21074;-50
2022/06/19 07:21:03;;;;;;;4.42;2.90;;;;;;;20.81;54.35;94900.75;1687920;84;20982;-50
2022/06/19 07:23:31;;;;;;;4.28;2.52;;;;;;;20.93;54.18;94891.73;1709814;84;21175;-48
2022/06/19 07:25:59;;;;;;;4.03;3.00;;;;;;;21.06;53.14;94889.93;1681431;85;21534;-50
2022/06/19 07:28:27;;;;;;;5.47;3.55;;;;;;;21.19;52.79;94890.79;1717339;83;21124;-51
2022/06/19 07:30:55;;;;;;;4.28;3.62;;;;;;;21.31;52.65;94887.44;1687629;84;21074;-51
2022/06/19 07:33:23;;;;;;;4.80;3.00;;;;;;;21.44;52.40;94882.07;1687622;84;20983;-51
2022/06/19 07:35:52;;;;;;;7.75;3.42;;;;;;;21.57;52.42;94886.48;1700527;83;21244;-52
2022/06/19 07:38:19;;;;;;;4.55;2.95;;;;;;;21.69;52.41;94880.23;1658662;86;21078;-50
2022/06/19 07:40:47;;;;;;;4.17;3.15;;;;;;;21.79;52.12;94873.81;1698409;84;21027;-50
2022/06/19 07:43:15;;;;;;;6.08;3.10;;;;;;;21.94;52.27;94867.87;1658585;86;21034;-54
2022/06/19 07:45:44;;;;;;;6.10;3.20;;;;;;;22.09;52.33;94865.61;1698414;84;20959;-49
2022/06/19 07:50:57;;;;;;;3.00;2.70;;;;;;;22.46;51.44;94860.94;1640893;86;21074;-54
2022/06/19 07:53:26;;;;;;;6.25;2.52;;;;;;;22.62;51.19;94857.99;1698351;84;21063;-51
2022/06/19 07:55:55;;;;;;;2.50;2.30;;;;;;;22.76;50.84;94856.86;1698339;84;21020;-56
2022/06/19 07:58:23;;;;;;;2.62;2.40;;;;;;;22.91;49.45;94848.05;1698819;84;21011;-51
2022/06/19 08:00:51;;;;;;;3.72;2.35;;;;;;;23.05;49.24;94849.70;1678319;84;21396;-52
2022/06/19 08:03:20;;;;;;;3.42;2.25;;;;;;;23.19;49.45;94842.30;1678800;84;21022;-53
2022/06/19 08:05:49;;;;;;;4.05;2.40;;;;;;;23.39;47.45;94841.81;1698336;84;20995;-51
2022/06/19 08:08:24;;;;;;;4.67;2.65;;;;;;;23.55;45.56;94840.86;1698593;84;21047;-49
2022/06/19 08:10:54;;;;;;;3.37;2.65;;;;;;;23.68;46.18;94838.15;1698650;84;20979;-50
2022/06/19 08:13:25;;;;;;;3.65;2.20;;;;;;;23.83;45.56;94843.34;1638502;86;20959;-50
2022/06/19 08:15:56;;;;;;;4.05;2.15;;;;;;;23.94;45.37;94838.33;1698743;84;20960;-50
2022/06/19 08:18:26;;;;;;;3.12;2.15;;;;;;;24.04;45.35;94833.86;1718567;82;21599;-50
2022/06/19 08:20:53;;;;;;;3.67;2.60;;;;;;;24.16;44.74;94836.61;1699058;83;21540;-51
2022/06/19 08:23:21;;;;;;;4.78;2.42;;;;;;;24.27;45.54;94830.83;1690316;85;21021;-51
2022/06/19 08:25:51;;;;;;;4.08;2.12;;;;;;;24.40;44.79;94827.41;1690545;85;21730;-51
2022/06/19 08:28:32;;;;;;;3.72;2.60;;;;;;;24.50;45.47;94820.11;1690289;85;21120;-50
2022/06/19 08:30:49;;;;;;;2.85;2.42;;;;;;;24.61;46.15;94821.34;1687426;84;21006;-50
2022/06/19 08:33:17;;;;;;;2.60;1.70;;;;;;;24.74;43.93;94818.58;1672897;85;21072;-52
2022/06/19 08:35:48;;;;;;;1.80;1.45;;;;;;;24.86;43.52;94819.91;1690311;84;21433;-50
2022/06/19 08:38:24;;;;;;;2.47;1.70;;;;;;;24.97;43.86;94813.32;1690463;85;21130;-51
2022/06/19 08:41:39;;;;;;;3.33;1.95;;;;;;;25.10;43.14;94813.34;1693417;83;20946;-51
2022/06/19 08:44:39;;;;;;;2.02;1.82;;;;;;;25.21;42.90;94811.74;1674134;84;21018;-51
2022/06/19 08:47:38;;;;;;;3.35;2.12;;;;;;;25.37;43.04;94819.11;1737038;82;21070;-55
2022/06/19 08:50:34;;;;;;;2.27;1.52;;;;;;;25.50;43.06;94814.23;1708187;82;21077;-50
2022/06/19 08:53:34;;;;;;;6.08;2.25;;;;;;;25.61;43.09;94811.20;1736333;82;21895;-50
2022/06/19 08:56:34;;;;;;;2.50;1.95;;;;;;;25.69;41.42;94805.66;1656721;86;21100;-52
2022/06/19 08:59:06;;;;;;;2.92;2.08;;;;;;;25.75;41.25;94806.29;1724442;82;21069;-51
2022/06/19 09:01:43;;;;;;;3.30;1.98;;;;;;;25.85;41.35;94800.35;1725048;82;22234;-50
2022/06/19 09:07:38;;;;;;;5.20;2.30;;;;;;;25.91;40.48;94798.16;1725412;82;21163;-50
2022/06/19 09:10:38;;;;;;;5.20;1.60;;;;;;;26.02;42.34;94799.44;1737412;82;21031;-50
2022/06/19 09:13:14;;;;;;;4.28;1.87;;;;;;;26.16;42.02;94802.30;1737051;82;21066;-52
2022/06/19 09:16:02;;;;;;;5.83;2.08;;;;;;;26.29;40.53;94790.23;1725909;82;21434;-50
2022/06/19 09:18:49;;;;;;;2.05;1.85;;;;;;;26.39;41.32;94787.80;1732965;82;21497;-50
2022/06/19 09:21:30;;;;;;;6.25;1.75;;;;;;;26.49;41.95;94786.03;1738106;82;21165;-50
2022/06/19 09:24:21;;;;;;;3.33;1.87;;;;;;;26.61;41.27;94784.45;1736945;82;21034;-52
2022/06/19 09:26:58;;;;;;;3.00;1.60;;;;;;;26.69;39.49;94780.30;1737619;82;21546;-54
2022/06/19 09:29:48;;;;;;;4.62;1.50;;;;;;;26.79;39.13;94777.07;1737186;82;21019;-54
2022/06/19 09:32:45;;;;;;;4.83;1.95;;;;;;;26.86;39.57;94774.98;1738280;82;20991;-54
2022/06/19 09:35:20;;;;;;;3.98;1.60;;;;;;;26.94;38.01;94782.20;1741357;81;21241;-51
2022/06/19 09:38:03;;;;;;;2.45;1.40;;;;;;;26.97;38.95;94768.38;1752888;81;21570;-51
2022/06/19 09:40:34;;;;;;;2.50;1.52;;;;;;;27.06;38.42;94768.54;1752982;81;21526;-51
2022/06/19 09:43:12;;;;;;;3.42;1.60;;;;;;;27.12;37.80;94762.09;1729059;81;21014;-51
2022/06/19 09:45:59;;;;;;;6.75;1.70;;;;;;;27.13;36.85;94765.80;1752980;81;21010;-51
2022/06/19 09:48:44;;;;;;;4.20;1.50;;;;;;;27.17;35.93;94764.78;1752908;81;21241;-52
2022/06/19 09:51:40;;;;;;;3.45;2.10;;;;;;;27.27;38.15;94765.03;1752856;81;20938;-51
2022/06/19 09:54:16;;;;;;;4.37;1.87;;;;;;;27.36;36.39;94773.02;1753036;81;20990;-51
2022/06/19 09:57:15;;;;;;;3.85;1.72;;;;;;;27.35;36.05;94766.59;1752425;81;21093;-50
2022/06/19 09:59:59;;;;;;;6.42;1.75;;;;;;;27.34;36.07;94767.91;1753069;81;21471;-53
2022/06/19 10:02:32;;;;;;;4.22;1.80;;;;;;;27.40;36.23;94754.36;1752871;81;21923;-51
2022/06/19 10:05:05;;;;;;;3.87;1.70;;;;;;;27.45;36.15;94747.05;1752685;81;21003;-49
2022/06/19 10:07:37;;;;;;;5.65;1.70;;;;;;;27.50;37.14;94752.55;1752521;81;20983;-49
2022/06/19 10:10:16;;;;;;;6.67;2.00;;;;;;;27.62;35.67;94752.98;1753120;81;20955;-51
2022/06/19 10:12:46;;;;;;;4.60;1.62;;;;;;;27.69;36.95;94750.18;1753074;81;20962;-50
2022/06/19 10:15:17;;;;;;;8.48;1.90;;;;;;;27.78;34.98;94752.50;1753070;81;21104;-51
2022/06/19 10:17:59;;;;;;;7.30;1.90;;;;;;;27.88;35.11;94733.69;1752358;81;20947;-51
2022/06/19 10:20:34;;;;;;;8.55;1.80;;;;;;;28.00;37.08;94737.70;1753263;81;20931;-50
2022/06/19 10:23:28;;;;;;;3.20;1.60;;;;;;;28.17;36.29;94734.43;1701654;81;21132;-54
2022/06/19 10:26:22;;;;;;;2.27;1.42;;;;;;;28.34;34.37;94738.16;1752877;81;21073;-52
2022/06/19 10:29:07;;;;;;;6.33;2.20;;;;;;;28.42;34.43;94738.27;1711773;81;21172;-51
2022/06/19 10:31:56;;;;;;;6.00;1.77;;;;;;;28.60;35.06;94722.25;1697669;81;21528;-53
2022/06/19 10:34:56;;;;;;;10.30;2.22;;;;;;;28.80;32.03;94732.64;1753287;81;20939;-53
2022/06/19 10:37:41;;;;;;;7.95;1.90;;;;;;;28.87;31.40;94733.28;1752939;81;21447;-52
2022/06/19 10:40:32;;;;;;;6.55;1.70;;;;;;;29.05;30.98;94722.25;1752816;81;21506;-51
2022/06/19 10:43:42;;;;;;;8.20;2.30;;;;;;;29.34;34.11;94726.36;1700384;81;21879;-52
2022/06/19 10:46:10;;;;;;;3.17;1.60;;;;;;;29.73;33.67;94722.86;1751650;81;20967;-50
2022/06/19 10:49:01;;;;;;;4.42;1.75;;;;;;;30.17;31.98;94722.65;1751885;81;21076;-52
2022/06/19 10:51:36;;;;;;;;;;;;;;;30.44;30.45;94730.73;1754818;81;20978;-51
2022/06/19 10:54:35;;;;;;;9.45;2.05;;;;;;;30.71;29.77;94735.21;1752873;82;20139;-50
2022/06/19 10:57:14;;;;;;;10.05;2.45;;;;;;;30.95;29.68;94736.63;1745823;81;21265;-50
2022/06/19 10:59:42;;;;;;;6.45;1.65;;;;;;;31.27;29.17;94725.15;1753173;82;20959;-51
2022/06/19 11:05:34;;;;;;;8.80;1.92;;;;;;;31.82;28.80;94721.25;1752827;82;20991;-50
2022/06/19 11:08:02;;;;;;;8.98;1.80;;;;;;;32.00;26.54;94714.95;1752908;82;20987;-51
2022/06/19 11:10:42;;;;;;;11.65;2.30;;;;;;;32.09;26.18;94714.94;1753092;81;21122;-51
2022/06/19 11:13:10;;;;;;;14.83;2.20;;;;;;;32.17;26.34;94713.52;1730858;82;21193;-50
2022/06/19 11:15:43;;;;;;;6.95;1.75;;;;;;;32.40;26.58;94713.95;1752793;82;20974;-49
2022/06/19 11:18:21;;;;;;;13.40;2.10;;;;;;;32.72;26.71;94712.91;1730592;82;21010;-50
2022/06/19 11:21:05;;;;;;;8.63;2.02;;;;;;;33.09;27.49;94715.81;1752818;82;21010;-52
2022/06/19 11:23:42;;;;;;;6.42;1.92;;;;;;;33.42;27.24;94712.69;1752942;81;21188;-50
2022/06/19 11:26:20;;;;;;;7.72;1.77;;;;;;;33.69;24.78;94711.89;1729865;81;21018;-51
2022/06/19 11:28:58;;;;;;;12.65;1.98;;;;;;;33.94;26.61;94713.86;1752841;82;21069;-51
2022/06/19 11:31:30;;;;;;;12.33;1.95;;;;;;;34.13;25.07;94713.09;1752689;81;20982;-50
2022/06/19 11:34:06;;;;;;;8.58;1.90;;;;;;;34.30;25.69;94707.97;1753164;81;21045;-52
2022/06/19 11:36:37;;;;;;;7.97;2.10;;;;;;;34.54;26.20;94713.98;1743786;81;21122;-51
2022/06/19 11:39:31;;;;;;;;;;;;;;;34.73;23.20;94711.09;1719196;82;21057;-51
2022/06/19 11:41:59;;;;;;;7.12;2.12;;;;;;;34.78;22.66;94702.89;1738247;82;20423;-52
2022/06/19 11:44:27;;;;;;;12.13;1.85;;;;;;;34.90;23.44;94696.57;1717254;82;20952;-50
2022/06/19 11:46:56;;;;;;;6.97;1.65;;;;;;;35.00;23.75;94700.14;1737691;82;20939;-52
2022/06/19 11:49:36;;;;;;;7.85;1.80;;;;;;;35.03;24.14;94693.20;1737670;82;21809;-51
2022/06/19 11:52:05;;;;;;;9.23;2.00;;;;;;;35.16;24.49;94697.67;1737697;82;20960;-52
2022/06/19 11:54:37;;;;;;;11.22;2.17;;;;;;;35.34;23.69;94696.81;1737841;82;20991;-51
2022/06/19 11:57:06;;;;;;;10.00;1.77;;;;;;;35.53;24.85;94697.35;1737750;82;20972;-50
2022/06/19 11:59:44;;;;;;;11.57;2.25;;;;;;;35.66;23.89;94697.61;1717469;82;20959;-51
2022/06/19 12:02:34;;;;;;;13.68;2.08;;;;;;;35.84;23.17;94690.89;1737692;82;21527;-52
2022/06/19 12:05:08;;;;;;;4.55;1.80;;;;;;;36.05;24.08;94683.02;1737055;82;20995;-53
2022/06/19 12:07:38;;;;;;;12.23;2.87;;;;;;;36.38;23.44;94687.37;1717718;82;21011;-50